Terminal Aerodrome Forecast
Issued by NWS

Home | Current Version | Previous Version | Text Only | Print | Product List | Glossary Off
Versions: 1 2 3 4 5 6 7 8 9 10 11 12 13 14

000
FTUS43 KOAX 200530
TAFCDR
TAF
KCDR 200530Z 2006/2106 19015KT P6SM FEW250
     FM200800 21006KT P6SM SCT250
     FM201700 23012G20KT P6SM BKN250=

USA.gov is the U.S. government's official web portal to all federal, state and local government web resources and services.